Tiempo atmosférico en la estación meteorológica de Villarrasa, Huelva (145 m.)



Fecha
DESCASC
Temp. máxima en grados centígrados (hora)
DESCASC
Temp. mínima en grados centígrados (hora)
DESCASC
Temp. media en grados centígrados
DESCASC
Racha de viento máxima en m/sg (hora)
DESCASC
Velocidad máxima media en intervalos de 10 minutos(hora)
DESCASC
Precipitaciones diarias en mm
DESCASC
Precipitaciones de 00:00 a 06:00 en mm
DESCASC
Precipitaciones de 06:00 a 12:00 en mm
DESCASC
Precipitaciones de 12:00 a 18:00 en mm
DESCASC
Precipitaciones de 18:00 a 24:00 en mm
DESCASC
21-02-2019 20.7 (15:40) 6.2 (02:10) 13.5 8.61 (14:00) 3.89 (10:50) 0 0 0 0 0
20-02-2019 20.1 (15:30) 5.9 (05:30) 13 5.56 (14:00) 3.06 (14:00) 0 0 0 0 0
19-02-2019 20.1 (15:20) 9.5 (08:20) 14.8 5.83 (15:30) 3.06 (15:30) 0.2 0.2 0 0 0
18-02-2019 17.7 (14:00) 9.7 (03:20) 13.7 7.78 (14:10) 3.89 (12:40) 0 0 0 0 0
17-02-2019 20 (15:30) 4.8 (00:00) 12.4 8.61 (14:20) 3.61 (13:20) 0 0 0 0 0
16-02-2019 20.1 (16:10) 5.4 (00:00) 12.8 8.33 (13:40) 4.17 (13:40) 0 0 0 0 0
15-02-2019 20.7 (16:00) 6.1 (00:00) 13.4 9.17 (11:20) 4.72 (11:20) 0 0 0 0 0
14-02-2019 20.8 (16:30) 5.1 (00:00) 12.9 9.44 (14:00) 4.72 (12:00) 0 0 0 0 0
13-02-2019 19.7 (16:00) 4.9 (00:00) 12.3 8.61 (11:50) 4.44 (12:00) 0 0 0 0 0
12-02-2019 21.3 (16:30) 6.7 (00:00) 14 6.11 (10:30) 3.33 (10:30) 0 0 0 0 0
11-02-2019 21.4 (16:00) 8.9 (00:00) 15.1 6.39 (15:50) 3.61 (16:10) 0 0 0 0 0
10-02-2019 18.9 (14:20) 3.1 (00:00) 11 8.89 (17:00) 5 (17:10) 0 0 0 0 0
09-02-2019 18.2 (15:30) 1.7 (00:00) 10 4.72 (16:00) 2.5 (19:00) 0 0 0 0 0
08-02-2019 19.8 (16:30) 1.9 (00:00) 10.8 4.72 (12:50) 2.78 (19:40) 0 0 0 0 0
07-02-2019 21 (16:40) 3.6 (00:00) 12.3 5.28 (16:10) 2.78 (17:00) 0 0 0 0 0
06-02-2019 21.5 (16:20) 6 (00:00) 13.8 5.83 (12:30) 3.33 (13:10) 0 0 0 0 0
05-02-2019 21.4 (16:00) 1.6 (00:00) 11.5 5.56 (12:40) 2.78 (07:00) 0 0 0 0 0
04-02-2019 18 (17:20) 3.1 (00:00) 10.5 7.22 (11:50) 3.33 (11:40) 0 0 0 0 0
03-02-2019 15.4 (16:30) 1.9 (00:00) 8.6 7.22 (10:40) 4.44 (03:10) 0 0 0 0 0
02-02-2019 12.8 (16:00) 3.4 (00:00) 8.1 13.33 (12:40) 7.5 (12:40) 0 0 0 0 0
01-02-2019 15.1 (15:50) 6.6 (00:00) 10.9 18.61 (16:00) 9.72 (16:00) 21.2 18.8 0 2.2 0.2
31-01-2019 16 (13:30) 11.5 (00:00) 13.8 12.78 (16:30) 6.94 (16:30) 2.4 0.8 0.4 1.2 0
30-01-2019 12.8 (15:40) 8.8 (00:00) 10.8 7.22 (14:30) 3.33 (04:50) 2 0 0 1.8 0.2
29-01-2019 15.5 (15:30) 5.2 (00:00) 10.3 10 (11:20) 5.83 (12:40) 0 0 0 0 0
28-01-2019 15.1 (13:30) 4.5 (00:00) 9.8 12.78 (16:10) 6.67 (16:10) 0 0 0 0 0
27-01-2019 14.4 (14:50) 2.4 (00:00) 8.4 14.44 (15:40) 7.78 (15:40) 0 0 0 0 0
26-01-2019 21.5 (15:50) 6.4 (00:00) 14 6.67 (17:50) 4.44 (17:50) 0 0 0 0 0
25-01-2019 21.3 (16:50) 6.6 (00:00) 13.9 6.67 (14:40) 3.89 (14:30) 0 0 0 0 0
24-01-2019 19.8 (16:50) 8.7 (00:00) 14.2 8.89 (02:20) 4.72 (00:10) 0 0 0 0 0

Gráficas

Temp. máximas Temp. mínimas Temp. medias Precipitaciones Rachas de viento máximas Velocidades máximas media en intervalos de 10 minutos

Datos horarios

Fecha y hora oficial Temperatura (ºC) Velocidad del viento (km/h) Dirección del viento Racha (km/h) Dirección de racha Precipitación (mm) Presión (hPa) Tendencia (hPa) Humedad (%)
2019-02-22 23:00:00 7.3 4 Norte 5 Nordeste 0 -- -- 87
2019-02-22 22:00:00 8.4 0 Calma 5 Noroeste 0 -- -- 83
2019-02-22 21:00:00 9.6 3 Noroeste 6 Noroeste 0 -- -- 81
2019-02-22 20:00:00 11.3 3 Norte 4 Norte 0 -- -- 73
2019-02-22 19:00:00 17.5 2 Este 12 Este 0 -- -- 55
2019-02-22 18:00:00 21.2 5 Sudeste 15 Este 0 -- -- 41
2019-02-22 17:00:00 21.3 5 Este 18 Sudeste 0 -- -- 42
2019-02-22 16:00:00 21.8 8 Este 25 Este 0 -- -- 40
2019-02-22 15:00:00 20.1 9 Este 22 Sudeste 0 -- -- 43
2019-02-22 14:00:00 20.5 13 Sudeste 23 Este 0 -- -- 40
2019-02-22 13:00:00 18.3 10 Este 23 Sudeste 0 -- -- 48
2019-02-22 12:00:00 16.7 9 Este 28 Este 0 -- -- 54
2019-02-22 11:00:00 14.6 9 Este 22 Este 0 -- -- 61
2019-02-22 10:00:00 12.3 8 Este 24 Este 0 -- -- 69
2019-02-22 09:00:00 10 9 Nordeste 18 Nordeste 0 -- -- 77
2019-02-22 08:00:00 8.5 7 Nordeste 12 Este 0 -- -- 84
2019-02-22 07:00:00 8.7 6 Nordeste 15 Nordeste 0 -- -- 82
2019-02-22 06:00:00 8.7 6 Nordeste 16 Nordeste 0 -- -- 82
2019-02-22 05:00:00 7.6 6 Nordeste 11 Nordeste 0 -- -- 86
2019-02-22 04:00:00 8.1 7 Norte 10 Norte 0 -- -- 88
2019-02-22 03:00:00 6.1 6 Norte 11 Norte 0 -- -- 92
2019-02-22 02:00:00 6.7 7 Nordeste 11 Norte 0 -- -- 97
2019-02-22 01:00:00 6.6 3 Nordeste 8 Nordeste 0 -- -- 91
2019-02-22 00:00:00 6.7 4 Nordeste 7 Este 0 -- -- 92
2019-02-21 23:00:00 7.8 4 Este 6 Este 0 -- -- 91
2019-02-21 22:00:00 8 4 Nordeste 5 Nordeste 0 -- -- 88
2019-02-21 21:00:00 10 0 Calma 5 Sur 0 -- -- 82
2019-02-21 20:00:00 11.5 3 Sudeste 9 Sudeste 0 -- -- 72
2019-02-21 19:00:00 16.9 3 Este 11 Sudeste 0 -- -- 53
2019-02-21 18:00:00 19.5 6 Este 15 Este 0 -- -- 47
2019-02-21 17:00:00 20.3 9 Este 20 Sudeste 0 -- -- 44
2019-02-21 16:00:00 20 6 Este 21 Este 0 -- -- 44
2019-02-21 15:00:00 19.7 10 Este 26 Este 0 -- -- 47
2019-02-21 14:00:00 19.6 13 Este 31 Sudeste 0 -- -- 44
2019-02-21 13:00:00 17.9 14 Sudeste 23 Sudeste 0 -- -- 52
2019-02-21 12:00:00 16.7 13 Este 25 Sudeste 0 -- -- 59
2019-02-21 11:00:00 14.4 10 Este 24 Este 0 -- -- 69
2019-02-21 10:00:00 11.9 10 Este 18 Este 0 -- -- 75
2019-02-21 09:00:00 9.6 3 Nordeste 15 Nordeste 0 -- -- 83
2019-02-21 08:00:00 9 8 Nordeste 22 Este 0 -- -- 84
2019-02-21 07:00:00 9 8 Nordeste 20 Nordeste 0 -- -- 84
2019-02-21 06:00:00 8.5 6 Nordeste 14 Nordeste 0 -- -- 84
2019-02-21 05:00:00 7.7 6 Nordeste 10 Nordeste 0 -- -- 86
2019-02-21 04:00:00 7.7 7 Nordeste 10 Norte 0 -- -- 87
2019-02-21 03:00:00 7.8 7 Nordeste 9 Nordeste 0 -- -- 88
2019-02-21 02:00:00 6.3 4 Nordeste 8 Este 0 -- -- 93
2019-02-21 01:00:00 7.5 4 Este 9 Este 0 -- -- 91
2019-02-21 00:00:00 6.9 4 Norte 6 Norte 0 -- -- 93
2019-02-20 23:00:00 8.4 3 Norte 8 Noroeste 0 -- -- 87
2019-02-20 22:00:00 10.2 4 Noroeste 9 Oeste 0 -- -- 83
2019-02-20 21:00:00 10 3 Noroeste 10 Sudoeste 0 -- -- 82
2019-02-20 20:00:00 10.8 2 Noroeste 4 Este 0 -- -- 79
2019-02-20 19:00:00 16.2 3 Este 12 Sudeste 0 -- -- 58
2019-02-20 18:00:00 18.6 7 Sudeste 18 Sudeste 0 -- -- 51
2019-02-20 17:00:00 19.8 9 Este 17 Sudeste 0 -- -- 49
2019-02-20 16:00:00 19.8 5 Este 18 Sur 0 -- -- 50
2019-02-20 15:00:00 20 9 Sudeste 20 Sudeste 0 -- -- 51
2019-02-20 14:00:00 18.9 11 Sudeste 20 Sudeste 0 -- -- 54
2019-02-20 13:00:00 17.7 5 Sudeste 14 Sudeste 0 -- -- 60
2019-02-20 12:00:00 15.9 8 Este 14 Este 0 -- -- 68
2019-02-20 11:00:00 14.1 7 Este 14 Este 0 -- -- 74
2019-02-20 10:00:00 10.7 8 Nordeste 11 Nordeste 0 -- -- 85
2019-02-20 09:00:00 8 7 Nordeste 10 Nordeste 0 -- -- 95
2019-02-20 08:00:00 6.1 4 Norte 8 Norte 0 -- -- 96
2019-02-20 07:00:00 7.2 4 Nordeste 8 Nordeste 0 -- -- 95
2019-02-20 06:00:00 6 4 Nordeste 8 Norte 0 -- -- 96
2019-02-20 05:00:00 6.2 4 Norte 7 Nordeste 0 -- -- 95
2019-02-20 04:00:00 7.1 5 Norte 10 Nordeste 0 -- -- 93
2019-02-20 03:00:00 7.3 6 Norte 9 Nordeste 0 -- -- 95
2019-02-20 02:00:00 8.1 4 Norte 10 Norte 0 -- -- 91
2019-02-20 01:00:00 8.1 4 Norte 7 Norte 0 -- -- 91
2019-02-20 00:00:00 10.7 4 Nordeste 8 Nordeste 0 -- -- 83
2019-02-19 23:00:00 9.6 5 Norte 7 Norte 0 -- -- 89
2019-02-19 22:00:00 10.5 3 Norte 8 Norte 0 -- -- 85
2019-02-19 21:00:00 12.3 4 Noroeste 8 Noroeste 0 -- -- 79
2019-02-19 20:00:00 13.9 4 Norte 10 Oeste 0 -- -- 77
2019-02-19 19:00:00 16.2 6 Oeste 18 Sudoeste 0 -- -- 66
2019-02-19 18:00:00 18 9 Sudoeste 19 Sudoeste 0 -- -- 60
2019-02-19 17:00:00 19.4 8 Sudoeste 16 Sudoeste 0 -- -- 57
2019-02-19 16:00:00 19.2 9 Sudoeste 21 Sudoeste 0 -- -- 57
2019-02-19 15:00:00 18.8 3 Sudoeste 14 Sudoeste 0 -- -- 58
2019-02-19 14:00:00 18.5 4 Sur 13 Sudeste 0 -- -- 56
2019-02-19 13:00:00 17.4 3 Oeste 11 Sur 0 -- -- 67
2019-02-19 12:00:00 15.8 4 Sudeste 9 Sur 0 -- -- 77
2019-02-19 11:00:00 14.1 5 Este 8 Este 0 -- -- 84
2019-02-19 10:00:00 12 3 Este 7 Este 0 -- -- 92
2019-02-19 09:00:00 9.9 3 Nordeste 6 Nordeste 0 -- -- 97
2019-02-19 08:00:00 9.8 4 Norte 6 Norte 0 -- -- 96
2019-02-19 07:00:00 9.9 5 Norte 8 Norte 0 -- -- 96
2019-02-19 06:00:00 10 4 Norte 5 Norte 0 -- -- 96
2019-02-19 05:00:00 10.7 3 Nordeste 8 Nordeste 0 -- -- 94
2019-02-19 04:00:00 11 3 Norte 5 Norte 0.2 -- -- 93
2019-02-19 03:00:00 11 3 Norte 5 Nordeste 0 -- -- 91
2019-02-19 02:00:00 12.3 3 Sudeste 10 Sudeste 0 -- -- 83
2019-02-19 01:00:00 11.4 0 Calma 4 Norte 0 -- -- 86
2019-02-19 00:00:00 11.2 2 Norte 5 Sur 0 -- -- 86
2019-02-18 23:00:00 11.1 3 Norte 7 Sudeste 0 -- -- 86
2019-02-18 22:00:00 11.6 4 Este 9 Sudeste 0 -- -- 83
2019-02-18 21:00:00 12.1 6 Norte 8 Norte 0 -- -- 82
2019-02-18 20:00:00 12.1 3 Norte 9 Oeste 0 -- -- 82
2019-02-18 19:00:00 14.7 6 Sudoeste 22 Sudeste 0 -- -- 69
2019-02-18 18:00:00 17.1 12 Sudeste 20 Sudeste 0 -- -- 59
2019-02-18 17:00:00 16.9 8 Este 20 Este 0 -- -- 61
2019-02-18 16:00:00 16.9 9 Este 18 Este 0 -- -- 60
2019-02-18 15:00:00 16.7 11 Este 28 Sudeste 0 -- -- 61
2019-02-18 14:00:00 17.7 14 Este 27 Este 0 -- -- 57
2019-02-18 13:00:00 14.4 9 Este 26 Este 0 -- -- 65
2019-02-18 12:00:00 13.3 10 Este 23 Este 0 -- -- 69
2019-02-18 11:00:00 11.8 9 Este 22 Este 0 -- -- 73
2019-02-18 10:00:00 11.2 10 Este 24 Este 0 -- -- 77
2019-02-18 09:00:00 10.6 9 Este 19 Este 0 -- -- 81
2019-02-18 08:00:00 10.4 9 Este 21 Este 0 -- -- 82
2019-02-18 07:00:00 10.4 9 Este 22 Este 0 -- -- 84
2019-02-18 06:00:00 10.4 9 Este 20 Nordeste 0 -- -- 85
2019-02-18 05:00:00 10.1 6 Este 13 Nordeste 0 -- -- 88
2019-02-18 04:00:00 9.9 5 Este 17 Este 0 -- -- 89
2019-02-18 03:00:00 10 8 Este 18 Sudeste 0 -- -- 89
2019-02-18 02:00:00 10.4 6 Sudeste 17 Sudeste 0 -- -- 88
2019-02-18 01:00:00 11 10 Sudeste 19 Sur 0 -- -- 86
2019-02-18 00:00:00 10.8 4 Sudeste 15 Sur 0 -- -- 84
2019-02-17 23:00:00 11.5 7 Sudeste 18 Sudeste 0 -- -- 84
2019-02-17 22:00:00 11.7 5 Sudeste 13 Sur 0 -- -- 90
2019-02-17 21:00:00 12.4 7 Sur 13 Sudeste 0 -- -- 85
2019-02-17 20:00:00 13.3 6 Sudoeste 11 Sudoeste 0 -- -- 81
2019-02-17 19:00:00 14.8 5 Sudoeste 21 Sur 0 -- -- 73
2019-02-17 18:00:00 17.6 12 Sur 26 Sudoeste 0 -- -- 62
2019-02-17 17:00:00 19 10 Sur 21 Sudeste 0 -- -- 54
2019-02-17 16:00:00 19.5 13 Sudeste 24 Sur 0 -- -- 50
2019-02-17 15:00:00 19.5 9 Sudeste 31 Sudeste 0 -- -- 46
2019-02-17 14:00:00 18.8 11 Sudeste 24 Sudeste 0 -- -- 48
2019-02-17 13:00:00 18.2 12 Este 25 Este 0 -- -- 50
2019-02-17 12:00:00 16.4 10 Este 21 Este 0 -- -- 58
2019-02-17 11:00:00 13.8 6 Este 19 Nordeste 0 -- -- 68
2019-02-17 10:00:00 10.6 5 Nordeste 13 Nordeste 0 -- -- 77
2019-02-17 09:00:00 7.8 8 Nordeste 15 Nordeste 0 -- -- 84
2019-02-17 08:00:00 7.1 8 Nordeste 13 Norte 0 -- -- 86
2019-02-17 07:00:00 6.7 7 Nordeste 12 Nordeste 0 -- -- 84
2019-02-17 06:00:00 7.6 8 Norte 12 Nordeste 0 -- -- 83
2019-02-17 05:00:00 7.7 8 Norte 13 Nordeste 0 -- -- 81
2019-02-17 04:00:00 7.7 6 Norte 10 Norte 0 -- -- 78
2019-02-17 03:00:00 7.7 7 Norte 12 Nordeste 0 -- -- 78
2019-02-17 02:00:00 5.6 5 Nordeste 11 Nordeste 0 -- -- 85
2019-02-17 01:00:00 4.8 5 Norte 9 Norte 0 -- -- 94
2019-02-17 00:00:00 5.4 5 Nordeste 9 Nordeste 0 -- -- 94
2019-02-16 23:00:00 6.5 5 Nordeste 7 Norte 0 -- -- 93
2019-02-16 22:00:00 7.5 4 Norte 6 Norte 0 -- -- 90
2019-02-16 21:00:00 9.7 4 Norte 8 Norte 0 -- -- 85
2019-02-16 20:00:00 12.4 6 Oeste 12 Oeste 0 -- -- 74
2019-02-16 19:00:00 17.1 2 Sudoeste 7 Sudeste 0 -- -- 58
2019-02-16 18:00:00 18.8 4 Sudeste 9 Sudeste 0 -- -- 50
2019-02-16 17:00:00 18.8 4 Este 20 Este 0 -- -- 53
2019-02-16 16:00:00 19.5 9 Este 24 Este 0 -- -- 50
2019-02-16 15:00:00 17.4 8 Este 21 Este 0 -- -- 55
2019-02-16 14:00:00 16.4 13 Este 30 Este 0 -- -- 55
2019-02-16 13:00:00 16.8 11 Este 27 Sudeste 0 -- -- 58
2019-02-16 12:00:00 14.1 8 Sudeste 18 Sudeste 0 -- -- 70
2019-02-16 11:00:00 12.9 4 Este 12 Este 0 -- -- 72
2019-02-16 10:00:00 10.3 2 Este 9 Este 0 -- -- 79
2019-02-16 09:00:00 9.2 3 Este 7 Este 0 -- -- 80
2019-02-16 08:00:00 8.6 3 Nordeste 10 Nordeste 0 -- -- 83
2019-02-16 07:00:00 10 6 Nordeste 10 Nordeste 0 -- -- 78
2019-02-16 06:00:00 9.1 3 Nordeste 10 Nordeste 0 -- -- 84
2019-02-16 05:00:00 6.7 2 Nordeste 5 Nordeste 0 -- -- 94
2019-02-16 04:00:00 6.6 0 Calma 9 Este 0 -- -- 91
2019-02-16 03:00:00 7.5 4 Este 9 Este 0 -- -- 90
2019-02-16 02:00:00 8.2 3 Este 9 Sur 0 -- -- 86
2019-02-16 01:00:00 10.4 4 Nordeste 8 Nordeste 0 -- -- 78
2019-02-16 00:00:00 9.1 5 Norte 11 Nordeste 0 -- -- 85
2019-02-15 23:00:00 11.4 5 Norte 10 Nordeste 0 -- -- 74
2019-02-15 22:00:00 10.7 7 Norte 10 Norte 0 -- -- 76
2019-02-15 21:00:00 9.8 5 Norte 9 Nordeste 0 -- -- 80
2019-02-15 20:00:00 10.9 5 Norte 7 Norte 0 -- -- 76
2019-02-15 19:00:00 16.2 4 Este 15 Nordeste 0 -- -- 57
2019-02-15 18:00:00 19.1 8 Este 25 Este 0 -- -- 49
2019-02-15 17:00:00 19.7 12 Este 25 Este 0 -- -- 48
2019-02-15 16:00:00 20.7 10 Este 26 Este 0 -- -- 48
2019-02-15 15:00:00 20.2 14 Este 29 Nordeste 0 -- -- 48
2019-02-15 14:00:00 19.1 13 Este 28 Este 0 -- -- 52
2019-02-15 13:00:00 18.4 15 Este 28 Este 0 -- -- 54
2019-02-15 12:00:00 16.3 9 Este 33 Nordeste 0 -- -- 63
2019-02-15 11:00:00 13.5 15 Nordeste 30 Nordeste 0 -- -- 71
2019-02-15 10:00:00 11.6 10 Nordeste 20 Nordeste 0 -- -- 77
2019-02-15 09:00:00 9.3 8 Nordeste 18 Nordeste 0 -- -- 85
2019-02-15 08:00:00 7.6 6 Nordeste 15 Nordeste 0 -- -- 88
2019-02-15 07:00:00 6.5 6 Nordeste 12 Nordeste 0 -- -- 88
2019-02-15 06:00:00 7.3 8 Nordeste 12 Norte 0 -- -- 86
2019-02-15 05:00:00 7.4 7 Norte 12 Nordeste 0 -- -- 86
2019-02-15 04:00:00 7.4 8 Nordeste 10 Nordeste 0 -- -- 87
2019-02-15 03:00:00 7.7 6 Nordeste 14 Nordeste 0 -- -- 85
2019-02-15 02:00:00 9.2 8 Nordeste 14 Nordeste 0 -- -- 80
2019-02-15 01:00:00 8.9 7 Nordeste 13 Nordeste 0 -- -- 83
2019-02-15 00:00:00 7.7 7 Nordeste 14 Este 0 -- -- 94
2019-02-14 23:00:00 6.4 3 Este 8 Nordeste 0 -- -- 93
2019-02-14 22:00:00 7.7 5 Nordeste 8 Nordeste 0 -- -- 88
2019-02-14 21:00:00 9.4 4 Sudeste 7 Sudeste 0 -- -- 84
2019-02-14 20:00:00 12.4 3 Sudeste 9 Este 0 -- -- 73
2019-02-14 19:00:00 17.2 4 Este 13 Este 0 -- -- 56
2019-02-14 18:00:00 20 9 Este 20 Sudeste 0 -- -- 49
2019-02-14 17:00:00 20.1 9 Este 23 Sudeste 0 -- -- 50
2019-02-14 16:00:00 20.1 11 Este 23 Este 0 -- -- 50
2019-02-14 15:00:00 19.4 10 Este 27 Este 0 -- -- 51
2019-02-14 14:00:00 18 15 Este 34 Este 0 -- -- 56
2019-02-14 13:00:00 17.9 12 Este 32 Este 0 -- -- 55
2019-02-14 12:00:00 15.9 17 Este 30 Este 0 -- -- 60
2019-02-14 11:00:00 14 13 Este 26 Este 0 -- -- 67
2019-02-14 10:00:00 11.1 11 Este 22 Este 0 -- -- 77
2019-02-14 09:00:00 8.8 8 Nordeste 17 Nordeste 0 -- -- 84
2019-02-14 08:00:00 8 7 Nordeste 16 Nordeste 0 -- -- 85
2019-02-14 07:00:00 7.7 8 Nordeste 14 Nordeste 0 -- -- 85
2019-02-14 06:00:00 7.1 5 Nordeste 10 Nordeste 0 -- -- 86
2019-02-14 05:00:00 7.7 6 Nordeste 13 Nordeste 0 -- -- 83
2019-02-14 04:00:00 7.4 7 Nordeste 11 Nordeste 0 -- -- 85
2019-02-14 03:00:00 7.5 8 Nordeste 11 Nordeste 0 -- -- 88
2019-02-14 02:00:00 5.4 6 Nordeste 8 Nordeste 0 -- -- 96
2019-02-14 01:00:00 5.8 4 Nordeste 9 Este 0 -- -- 95
2019-02-14 00:00:00 5.5 4 Norte 6 Nordeste 0 -- -- 94
2019-02-13 23:00:00 6.4 3 Nordeste 4 Nordeste 0 -- -- 92
2019-02-13 22:00:00 7.4 4 Sudoeste 6 Sur 0 -- -- 92
2019-02-13 21:00:00 7.9 4 Norte 5 Norte 0 -- -- 88
2019-02-13 20:00:00 9.6 0 Calma 2 Sudeste 0 -- -- 80
2019-02-13 19:00:00 15.6 2 Sudeste 12 Este 0 -- -- 61
2019-02-13 18:00:00 19.1 6 Sudeste 15 Este 0 -- -- 48
2019-02-13 17:00:00 19.2 8 Este 22 Este 0 -- -- 50
2019-02-13 16:00:00 19.7 12 Sudeste 25 Sudeste 0 -- -- 50
2019-02-13 15:00:00 19.1 11 Este 25 Sudeste 0 -- -- 48
2019-02-13 14:00:00 18.1 14 Este 26 Este 0 -- -- 50
2019-02-13 13:00:00 17 13 Este 28 Este 0 -- -- 57
2019-02-13 12:00:00 14.5 16 Este 31 Este 0 -- -- 62
2019-02-13 11:00:00 13.4 12 Este 26 Nordeste 0 -- -- 66
2019-02-13 10:00:00 11 11 Este 21 Este 0 -- -- 74
2019-02-13 09:00:00 7.2 4 Nordeste 10 Nordeste 0 -- -- 92
2019-02-13 08:00:00 5.5 3 Nordeste 8 Nordeste 0 -- -- 93
2019-02-13 07:00:00 6.8 5 Nordeste 10 Norte 0 -- -- 89
2019-02-13 06:00:00 7.2 4 Nordeste 8 Norte 0 -- -- 87
2019-02-13 05:00:00 8.8 5 Nordeste 12 Nordeste 0 -- -- 80
2019-02-13 04:00:00 8.8 5 Nordeste 11 Nordeste 0 -- -- 79
2019-02-13 03:00:00 9.5 8 Nordeste 13 Nordeste 0 -- -- 76
2019-02-13 02:00:00 9.3 5 Norte 10 Nordeste 0 -- -- 79
2019-02-13 01:00:00 9.9 5 Nordeste 13 Nordeste 0 -- -- 78
2019-02-13 00:00:00 10.3 4 Nordeste 10 Nordeste 0 -- -- 79
2019-02-12 23:00:00 11.7 4 Este 13 Este 0 -- -- 78
2019-02-12 22:00:00 12.6 6 Este 13 Este 0 -- -- 78
2019-02-12 21:00:00 14 8 Este 16 Sudeste 0 -- -- 73
2019-02-12 20:00:00 15.7 4 Nordeste 12 Este 0 -- -- 66
2019-02-12 19:00:00 17.1 2 Este 10 Sudeste 0 -- -- 62
2019-02-12 18:00:00 20.1 5 Sudeste 19 Sudeste 0 -- -- 50
2019-02-12 17:00:00 20.5 7 Este 22 Sudeste 0 -- -- 50
2019-02-12 16:00:00 20.9 10 Sudeste 21 Sudeste 0 -- -- 49
2019-02-12 15:00:00 20.2 7 Sudeste 17 Sudeste 0 -- -- 52
2019-02-12 14:00:00 19.7 7 Sudeste 19 Este 0 -- -- 53
2019-02-12 13:00:00 18.7 9 Sudeste 20 Sudeste 0 -- -- 57
2019-02-12 12:00:00 17.5 10 Este 22 Este 0 -- -- 58
2019-02-12 11:00:00 15 8 Este 22 Este 0 -- -- 64
2019-02-12 10:00:00 12.4 8 Nordeste 18 Nordeste 0 -- -- 69
2019-02-12 09:00:00 7.9 5 Nordeste 10 Nordeste 0 -- -- 86
2019-02-12 08:00:00 7 4 Norte 9 Norte 0 -- -- 85
2019-02-12 07:00:00 9.4 7 Norte 10 Norte 0 -- -- 77
2019-02-12 06:00:00 9.7 7 Norte 10 Norte 0 -- -- 74
2019-02-12 05:00:00 10.4 8 Norte 13 Norte 0 -- -- 70
2019-02-12 04:00:00 10.7 9 Norte 14 Norte 0 -- -- 69
2019-02-12 03:00:00 10.6 9 Norte 16 Norte 0 -- -- 70
2019-02-12 02:00:00 10.9 9 Norte 15 Norte 0 -- -- 69
2019-02-12 01:00:00 10.9 8 Norte 13 Norte 0 -- -- 71
2019-02-12 00:00:00 11.3 7 Norte 11 Nordeste 0 -- -- 77
2019-02-11 23:00:00 9.4 6 Norte 9 Nordeste 0 -- -- 89
2019-02-11 22:00:00 10.8 6 Norte 9 Nordeste 0 -- -- 86
2019-02-11 21:00:00 12.8 5 Este 11 Este 0 -- -- 77
2019-02-11 20:00:00 14.7 7 Nordeste 15 Norte 0 -- -- 67
2019-02-11 19:00:00 16.3 5 Noroeste 15 Sudeste 0 -- -- 60
2019-02-11 18:00:00 20.7 8 Sudeste 14 Sudeste 0 -- -- 44
2019-02-11 17:00:00 21.1 6 Este 20 Este 0 -- -- 46
2019-02-11 16:00:00 21.4 11 Sudeste 23 Sur 0 -- -- 46
2019-02-11 15:00:00 20.4 4 Oeste 17 Oeste 0 -- -- 44
2019-02-11 14:00:00 19.2 6 Oeste 14 Sudoeste 0 -- -- 47
2019-02-11 13:00:00 18.1 5 Sudoeste 14 Oeste 0 -- -- 54
2019-02-11 12:00:00 15.9 7 Oeste 14 Oeste 0 -- -- 69
2019-02-11 11:00:00 13.6 6 Noroeste 13 Oeste 0 -- -- 86
2019-02-11 10:00:00 12 5 Oeste 13 Oeste 0 -- -- 96
2019-02-11 09:00:00 11.6 5 Noroeste 12 Noroeste 0 -- -- 96
2019-02-11 08:00:00 11 3 Noroeste 5 Sur 0 -- -- 95
2019-02-11 07:00:00 11.4 4 Sur 6 Sur 0 -- -- 93
2019-02-11 06:00:00 11.6 0 Calma 4 Sudeste 0 -- -- 93
2019-02-11 05:00:00 11.9 2 Sur 3 Sur 0 -- -- 93
2019-02-11 04:00:00 12 3 Oeste 7 Oeste 0 -- -- 92
2019-02-11 03:00:00 12.4 3 Oeste 8 Oeste 0 -- -- 88
2019-02-11 02:00:00 12.5 4 Oeste 12 Oeste 0 -- -- 86
2019-02-11 01:00:00 12.1 5 Oeste 12 Oeste 0 -- -- 85
2019-02-11 00:00:00 10.7 6 Noroeste 9 Oeste 0 -- -- 90
2019-02-10 23:00:00 11.2 0 Calma 6 Oeste 0 -- -- 88
2019-02-10 22:00:00 11.9 4 Oeste 9 Oeste 0 -- -- 85
2019-02-10 21:00:00 12.5 5 Oeste 13 Oeste 0 -- -- 83
2019-02-10 20:00:00 12.6 7 Oeste 14 Oeste 0 -- -- 81
2019-02-10 19:00:00 13.7 8 Oeste 18 Sudoeste 0 -- -- 74
2019-02-10 18:00:00 14.9 7 Sudoeste 27 Sudoeste 0 -- -- 67
2019-02-10 17:00:00 16.4 17 Sudoeste 32 Sudoeste 0 -- -- 61
2019-02-10 16:00:00 17.5 12 Oeste 19 Sudoeste 0 -- -- 60
2019-02-10 15:00:00 17.2 7 Oeste 18 Oeste 0 -- -- 60
2019-02-10 14:00:00 18 6 Sudoeste 15 Oeste 0 -- -- 59
2019-02-10 13:00:00 16.1 7 Sudoeste 12 Oeste 0 -- -- 66
2019-02-10 12:00:00 13.2 6 Sur 12 Sur 0 -- -- 82
2019-02-10 11:00:00 11 3 Sur 5 Sur 0 -- -- 99
2019-02-10 10:00:00 7.2 0 Calma 3 Norte 0 -- -- 99
2019-02-10 09:00:00 3.4 0 Calma 3 Noroeste 0 -- -- 99
2019-02-10 08:00:00 3.1 3 Nordeste 4 Nordeste 0 -- -- 98
2019-02-10 07:00:00 5.3 0 Calma 4 Este 0 -- -- 98
2019-02-10 06:00:00 4.4 2 Norte 4 Norte 0 -- -- 98
2019-02-10 05:00:00 4.1 0 Calma 5 Norte 0 -- -- 97
2019-02-10 04:00:00 3.9 4 Norte 6 Norte 0 -- -- 97
2019-02-10 03:00:00 3.6 3 Norte 4 Norte 0 -- -- 96
2019-02-10 02:00:00 4.5 3 Norte 4 Norte 0 -- -- 97
2019-02-10 01:00:00 4.2 3 Norte 6 Norte 0 -- -- 96
2019-02-10 00:00:00 4.3 3 Norte 5 Norte 0 -- -- 95
2019-02-09 23:00:00 4.9 4 Norte 5 Norte 0 -- -- 95
2019-02-09 22:00:00 6.1 3 Noroeste 7 Noroeste 0 -- -- 94
2019-02-09 21:00:00 7.5 4 Noroeste 8 Oeste 0 -- -- 90
2019-02-09 20:00:00 11.1 4 Oeste 14 Sudoeste 0 -- -- 77
2019-02-09 19:00:00 13.4 9 Sudoeste 17 Sudoeste 0 -- -- 70
2019-02-09 18:00:00 16.1 7 Sudoeste 14 Sudoeste 0 -- -- 61
2019-02-09 17:00:00 17.7 7 Sudoeste 17 Sudoeste 0 -- -- 57
2019-02-09 16:00:00 17.7 9 Sudoeste 17 Sudoeste 0 -- -- 58
2019-02-09 15:00:00 17.6 5 Oeste 16 Sudoeste 0 -- -- 58
2019-02-09 14:00:00 16.8 5 Sur 13 Sudeste 0 -- -- 62
2019-02-09 13:00:00 15.6 7 Sur 15 Este 0 -- -- 65
2019-02-09 12:00:00 13.8 9 Sudeste 16 Sudeste 0 -- -- 72
2019-02-09 11:00:00 10.9 4 Este 13 Este 0 -- -- 81
2019-02-09 10:00:00 7.4 2 Este 8 Nordeste 0 -- -- 99
2019-02-09 09:00:00 2.2 4 Norte 6 Nordeste 0 -- -- 98
2019-02-09 08:00:00 2.1 3 Norte 5 Norte 0 -- -- 98
2019-02-09 07:00:00 2.5 4 Norte 7 Norte 0 -- -- 98
2019-02-09 06:00:00 2.6 4 Nordeste 5 Nordeste 0 -- -- 98
2019-02-09 05:00:00 2.6 4 Nordeste 6 Nordeste 0 -- -- 97
2019-02-09 04:00:00 3.2 3 Nordeste 8 Norte 0 -- -- 96
2019-02-09 03:00:00 4.4 5 Noroeste 7 Noroeste 0 -- -- 98
2019-02-09 02:00:00 3.5 3 Noroeste 4 Noroeste 0 -- -- 96
2019-02-09 01:00:00 4.6 0 Calma 3 Oeste 0 -- -- 94
2019-02-09 00:00:00 5.4 2 Este 3 Sudeste 0 -- -- 91
2019-02-08 23:00:00 8.2 0 Calma 12 Norte 0 -- -- 85
2019-02-08 22:00:00 8.7 7 Norte 10 Norte 0 -- -- 89
2019-02-08 21:00:00 8.6 3 Noroeste 7 Oeste 0 -- -- 82
2019-02-08 20:00:00 12.4 6 Noroeste 17 Oeste 0 -- -- 68
2019-02-08 19:00:00 15.6 6 Oeste 11 Sudoeste 0 -- -- 57
2019-02-08 18:00:00 18.8 7 Sudoeste 10 Sudoeste 0 -- -- 47
2019-02-08 17:00:00 19.6 5 Sur 11 Sudoeste 0 -- -- 49
2019-02-08 16:00:00 19.4 5 Sur 12 Sur 0 -- -- 48
2019-02-08 15:00:00 19.2 4 Sur 14 Sur 0 -- -- 49
2019-02-08 14:00:00 18.4 7 Sudeste 14 Este 0 -- -- 50
2019-02-08 13:00:00 17 8 Sudeste 17 Sudeste 0 -- -- 54
2019-02-08 12:00:00 15.5 8 Sudeste 15 Sudeste 0 -- -- 55
2019-02-08 11:00:00 12.9 5 Este 11 Nordeste 0 -- -- 61
2019-02-08 10:00:00 8.6 3 Nordeste 8 Norte 0 -- -- 76
2019-02-08 09:00:00 2.1 4 Norte 6 Nordeste 0 -- -- 96
2019-02-08 08:00:00 2.2 3 Norte 6 Norte 0 -- -- 96
2019-02-08 07:00:00 2.4 3 Noroeste 6 Norte 0 -- -- 96
2019-02-08 06:00:00 2.9 4 Nordeste 5 Nordeste 0 -- -- 95
2019-02-08 05:00:00 3.4 4 Nordeste 6 Norte 0 -- -- 94
2019-02-08 04:00:00 3.4 4 Norte 6 Norte 0 -- -- 92
2019-02-08 03:00:00 6.7 0 Calma 13 Norte 0 -- -- 78
2019-02-08 02:00:00 9.8 8 Norte 13 Nordeste 0 -- -- 67
2019-02-08 01:00:00 9.2 6 Nordeste 12 Norte 0 -- -- 70
2019-02-08 00:00:00 6.5 6 Norte 10 Norte 0 -- -- 86
2019-02-07 23:00:00 5.6 4 Nordeste 5 Nordeste 0 -- -- 90
2019-02-07 22:00:00 8.6 4 Norte 10 Norte 0 -- -- 79
2019-02-07 21:00:00 8.5 5 Noroeste 9 Oeste 0 -- -- 79
2019-02-07 20:00:00 11.8 6 Oeste 12 Oeste 0 -- -- 66
2019-02-07 19:00:00 15.7 6 Oeste 16 Oeste 0 -- -- 51
2019-02-07 18:00:00 19.7 9 Oeste 17 Oeste 0 -- -- 31
2019-02-07 17:00:00 20.6 10 Oeste 19 Oeste 0 -- -- 32
2019-02-07 16:00:00 20.8 7 Sudoeste 17 Sudoeste 0 -- -- 37
2019-02-07 15:00:00 19.8 7 Sudoeste 14 Sur 0 -- -- 47
2019-02-07 14:00:00 19.1 5 Sudoeste 13 Sur 0 -- -- 51
2019-02-07 13:00:00 17.9 5 Sur 10 Oeste 0 -- -- 56
2019-02-07 12:00:00 16.2 3 Sur 9 Sur 0 -- -- 61
2019-02-07 11:00:00 13.5 4 Sur 7 Sur 0 -- -- 73
2019-02-07 10:00:00 8.5 0 Calma 4 Norte 0 -- -- 98
2019-02-07 09:00:00 3.8 2 Nordeste 5 Noroeste 0 -- -- 96
2019-02-07 08:00:00 4.2 4 Noroeste 7 Norte 0 -- -- 97
2019-02-07 07:00:00 4.7 5 Nordeste 10 Nordeste 0 -- -- 96
2019-02-07 06:00:00 4.3 3 Norte 5 Norte 0 -- -- 96
2019-02-07 05:00:00 4.9 0 Calma 0 Calma 0 -- -- 94
2019-02-07 04:00:00 5.4 0 Calma 0 Calma 0 -- -- 94
2019-02-07 03:00:00 5.2 0 Calma 3 Norte 0 -- -- 96
2019-02-07 02:00:00 4.9 3 Norte 8 Nordeste 0 -- -- 95
2019-02-07 01:00:00 5.7 0 Calma 5 Norte 0 -- -- 93
2019-02-07 00:00:00 6.7 0 Calma 5 Noroeste 0 -- -- 91
2019-02-06 23:00:00 6.7 0 Calma 6 Norte 0 -- -- 92
2019-02-06 22:00:00 8 3 Noroeste 10 Oeste 0 -- -- 84
2019-02-06 21:00:00 10.1 8 Oeste 12 Sudoeste 0 -- -- 78
2019-02-06 20:00:00 12.6 5 Oeste 15 Oeste 0 -- -- 70
2019-02-06 19:00:00 15.3 7 Oeste 15 Sudoeste 0 -- -- 56
2019-02-06 18:00:00 18.8 8 Sudoeste 17 Oeste 0 -- -- 49
2019-02-06 17:00:00 20.5 9 Sudoeste 17 Sudoeste 0 -- -- 42
2019-02-06 16:00:00 21.3 8 Sudoeste 16 Oeste 0 -- -- 40
2019-02-06 15:00:00 20.9 4 Sur 14 Sudeste 0 -- -- 41
2019-02-06 14:00:00 20.4 6 Sudeste 19 Sudeste 0 -- -- 43
2019-02-06 13:00:00 19.1 10 Sudeste 21 Sudeste 0 -- -- 45
2019-02-06 12:00:00 18 6 Sudeste 16 Sudeste 0 -- -- 51
2019-02-06 11:00:00 14.8 7 Nordeste 13 Nordeste 0 -- -- 55
2019-02-06 10:00:00 11.3 8 Nordeste 13 Norte 0 -- -- 63
2019-02-06 09:00:00 8.1 9 Norte 13 Nordeste 0 -- -- 69
2019-02-06 08:00:00 8.3 10 Nordeste 14 Nordeste 0 -- -- 67
2019-02-06 07:00:00 7.6 9 Nordeste 13 Nordeste 0 -- -- 71
2019-02-06 06:00:00 6.8 7 Norte 13 Nordeste 0 -- -- 74
2019-02-06 05:00:00 8.2 9 Norte 15 Norte 0 -- -- 67
2019-02-06 04:00:00 7.4 8 Norte 12 Norte 0 -- -- 69
2019-02-06 03:00:00 7.4 8 Norte 12 Norte 0 -- -- 69
2019-02-06 02:00:00 8.4 8 Norte 12 Nordeste 0 -- -- 65
2019-02-06 01:00:00 8.6 8 Norte 13 Norte 0 -- -- 64
2019-02-06 00:00:00 6 6 Norte 10 Norte 0 -- -- 79
2019-02-05 23:00:00 5.2 6 Norte 8 Norte 0 -- -- 83
2019-02-05 22:00:00 5.8 2 Nordeste 5 Norte 0 -- -- 80
2019-02-05 21:00:00 6.6 5 Norte 6 Norte 0 -- -- 79
2019-02-05 20:00:00 8.3 4 Nordeste 5 Nordeste 0 -- -- 71
2019-02-05 19:00:00 14.1 2 Este 8 Este 0 -- -- 55
2019-02-05 18:00:00 19.4 6 Sudeste 14 Este 0 -- -- 34
2019-02-05 17:00:00 20.3 10 Sudeste 17 Sudeste 0 -- -- 34
2019-02-05 16:00:00 21.4 7 Sudeste 18 Sudeste 0 -- -- 33
2019-02-05 15:00:00 21 8 Sudeste 15 Este 0 -- -- 36
2019-02-05 14:00:00 19 5 Nordeste 17 Este 0 -- -- 33
2019-02-05 13:00:00 18.5 9 Este 20 Este 0 -- -- 35
2019-02-05 12:00:00 15.8 6 Este 15 Este 0 -- -- 48
2019-02-05 11:00:00 13.2 6 Nordeste 13 Nordeste 0 -- -- 47
2019-02-05 10:00:00 9.2 6 Norte 12 Norte 0 -- -- 59
2019-02-05 09:00:00 6.6 9 Norte 13 Norte 0 -- -- 61
2019-02-05 08:00:00 6.9 10 Norte 13 Norte 0 -- -- 60
2019-02-05 07:00:00 5.8 10 Norte 14 Norte 0 -- -- 68
2019-02-05 06:00:00 1.6 5 Norte 10 Nordeste 0 -- -- 93
2019-02-05 05:00:00 1.9 5 Nordeste 8 Nordeste 0 -- -- 90
2019-02-05 04:00:00 5.9 0 Calma 12 Norte 0 -- -- 73
2019-02-05 03:00:00 7.9 9 Norte 14 Norte 0 -- -- 65
2019-02-05 02:00:00 7.8 8 Norte 13 Norte 0 -- -- 66
2019-02-05 01:00:00 7.9 6 Nordeste 13 Norte 0 -- -- 67
2019-02-05 00:00:00 6.4 9 Nordeste 13 Nordeste 0 -- -- 75
2019-02-04 23:00:00 3.1 5 Nordeste 6 Nordeste 0 -- -- 92
2019-02-04 22:00:00 4 3 Norte 6 Norte 0 -- -- 91
2019-02-04 21:00:00 5.1 4 Noroeste -- -- 0 -- -- 86
2019-02-04 20:00:00 6.7 3 Noroeste 5 Noroeste 0 -- -- 79
2019-02-04 19:00:00 10.9 0 Calma 4 Oeste 0 -- -- 70
2019-02-04 18:00:00 17.5 2 Sur 9 Sur 0 -- -- 41
2019-02-04 17:00:00 17.6 5 Sur 13 Sudeste 0 -- -- 39
2019-02-04 16:00:00 17.6 5 Sudeste 17 Sudeste 0 -- -- 36
2019-02-04 15:00:00 16.7 8 Sudeste 18 Sudeste 0 -- -- 43
2019-02-04 14:00:00 16.1 9 Sudeste 17 Este 0 -- -- 41
2019-02-04 13:00:00 13.3 7 Nordeste 20 Este 0 -- -- 43
2019-02-04 12:00:00 12.8 9 Este 26 Nordeste 0 -- -- 43
2019-02-04 11:00:00 10.1 9 Este 22 Este 0 -- -- 49
2019-02-04 10:00:00 7.8 8 Nordeste 19 Este 0 -- -- 54
2019-02-04 09:00:00 4.9 4 Nordeste 10 Este 0 -- -- 62
2019-02-04 08:00:00 5 7 Nordeste 12 Nordeste 0 -- -- 62
2019-02-04 07:00:00 4.7 6 Nordeste 12 Nordeste 0 -- -- 66
2019-02-04 06:00:00 4.6 7 Norte 14 Norte 0 -- -- 68
2019-02-04 05:00:00 4.2 5 Norte 13 Norte 0 -- -- 70
2019-02-04 04:00:00 4.7 6 Norte 12 Norte 0 -- -- 67
2019-02-04 03:00:00 5.7 7 Norte 18 Norte 0 -- -- 63
2019-02-04 02:00:00 6 10 Norte 17 Norte 0 -- -- 65
2019-02-04 01:00:00 4.8 8 Norte 16 Norte 0 -- -- 72
2019-02-04 00:00:00 6.8 5 Nordeste 16 Norte 0 -- -- 66
2019-02-03 23:00:00 2.4 5 Norte 8 Nordeste 0 -- -- 96
2019-02-03 22:00:00 2.5 4 Norte 6 Norte 0 -- -- 92
2019-02-03 21:00:00 3.2 2 Norte 5 Norte 0 -- -- 90
2019-02-03 20:00:00 5.1 4 Nordeste 8 Sur 0 -- -- 83
2019-02-03 19:00:00 10.4 3 Sudeste 10 Sudeste 0 -- -- 59
2019-02-03 18:00:00 14.5 6 Sudeste 18 Sudeste 0 -- -- 44
2019-02-03 17:00:00 14.4 6 Nordeste 14 Este 0 -- -- 36
2019-02-03 16:00:00 14 8 Norte 17 Noroeste 0 -- -- 38
2019-02-03 15:00:00 14.5 3 Este 15 Oeste 0 -- -- 45
2019-02-03 14:00:00 12.6 9 Norte 22 Sudeste 0 -- -- 42
2019-02-03 13:00:00 12.8 5 Sudoeste 12 Sur 0 -- -- 53
2019-02-03 12:00:00 11.5 6 Sudoeste 15 Sur 0 -- -- 62
2019-02-03 11:00:00 8.6 8 Norte 26 Norte 0 -- -- 61
2019-02-03 10:00:00 6.7 11 Norte 21 Norte 0 -- -- 69
2019-02-03 09:00:00 4.1 13 Norte 22 Noroeste 0 -- -- 80
2019-02-03 08:00:00 4 12 Norte 24 Noroeste 0 -- -- 80
2019-02-03 07:00:00 4.3 9 Norte 21 Norte 0 -- -- 77
2019-02-03 06:00:00 4.5 11 Norte 19 Noroeste 0 -- -- 76
2019-02-03 05:00:00 4.7 12 Norte 23 Norte 0 -- -- 75
2019-02-03 04:00:00 5.1 14 Norte 26 Noroeste 0 -- -- 74
2019-02-03 03:00:00 5.3 15 Noroeste 25 Noroeste 0 -- -- 72
2019-02-03 02:00:00 5.9 14 Noroeste 25 Noroeste 0 -- -- 69
2019-02-03 01:00:00 5.7 13 Noroeste 22 Norte 0 -- -- 69
2019-02-03 00:00:00 5.6 11 Noroeste 18 Norte 0 -- -- 69
2019-02-02 23:00:00 6.2 9 Noroeste 18 Noroeste 0 -- -- 67
2019-02-02 22:00:00 4.1 4 Oeste 7 Noroeste 0 -- -- 74
2019-02-02 21:00:00 5.3 4 Noroeste 9 Oeste 0 -- -- 69
2019-02-02 20:00:00 8.2 6 Oeste 15 Oeste 0 -- -- 56
2019-02-02 19:00:00 10 8 Noroeste 24 Noroeste 0 -- -- 51
2019-02-02 18:00:00 11.8 14 Noroeste 37 Oeste 0 -- -- 46
2019-02-02 17:00:00 12.5 18 Noroeste 39 Noroeste 0 -- -- 44
2019-02-02 16:00:00 12.8 18 Noroeste 40 Noroeste 0 -- -- 44
2019-02-02 15:00:00 12.6 18 Noroeste 40 Oeste 0 -- -- 48
2019-02-02 14:00:00 12.1 23 Noroeste 42 Noroeste 0 -- -- 49
2019-02-02 13:00:00 11.4 22 Noroeste 48 Noroeste 0 -- -- 50
2019-02-02 12:00:00 10.6 24 Noroeste 42 Noroeste 0 -- -- 57
2019-02-02 11:00:00 9.5 17 Noroeste 41 Noroeste 0 -- -- 65
2019-02-02 10:00:00 8.2 18 Noroeste 42 Noroeste 0 -- -- 74
2019-02-02 09:00:00 7.1 16 Noroeste 33 Noroeste 0 -- -- 80
2019-02-02 08:00:00 7.2 17 Noroeste 32 Noroeste 0 -- -- 83
2019-02-02 07:00:00 7.3 16 Noroeste 36 Oeste 0 -- -- 85
2019-02-02 06:00:00 7.8 19 Noroeste 39 Noroeste 0 -- -- 84
2019-02-02 05:00:00 8 21 Noroeste 38 Noroeste 0 -- -- 84
2019-02-02 04:00:00 8 18 Noroeste 37 Noroeste 0 -- -- 85
2019-02-02 03:00:00 7.8 17 Oeste 37 Oeste 0 -- -- 85
2019-02-02 02:00:00 7.9 13 Noroeste 29 Oeste 0 -- -- 85
2019-02-02 01:00:00 6.9 10 Oeste 25 Noroeste 0 -- -- 91
2019-02-02 00:00:00 6.6 6 Oeste 22 Noroeste 0 -- -- 88
2019-02-01 23:00:00 7.3 15 Noroeste 33 Oeste 0 -- -- 84
2019-02-01 22:00:00 7.2 16 Noroeste 27 Oeste 0 -- -- 85
2019-02-01 21:00:00 7.1 18 Noroeste 51 Noroeste 0.4 -- -- 89
2019-02-01 20:00:00 7.4 10 Noroeste 41 Norte 0 -- -- 90
2019-02-01 19:00:00 11.1 15 Oeste 44 Noroeste 0 -- -- 72
2019-02-01 18:00:00 12.5 22 Oeste 53 Oeste 0 -- -- 67
2019-02-01 17:00:00 13.3 30 Oeste 60 Oeste 0 -- -- 64
2019-02-01 16:00:00 14.1 35 Oeste 67 Sudoeste 0.2 -- -- 63
2019-02-01 15:00:00 13.5 23 Oeste 44 Oeste 0 -- -- 70
2019-02-01 14:00:00 9.4 19 Noroeste 61 Noroeste 2 -- -- 92
2019-02-01 13:00:00 13.5 18 Oeste 44 Oeste 0 -- -- 65
2019-02-01 12:00:00 13 22 Oeste 44 Oeste 0 -- -- 71
2019-02-01 11:00:00 12.1 19 Oeste 37 Oeste 0 -- -- 79
2019-02-01 10:00:00 11.1 25 Oeste 50 Noroeste -- -- -- 82
2019-02-01 09:00:00 10.4 13 Oeste 22 Oeste 0 -- -- 95
2019-02-01 08:00:00 10.3 12 Oeste 34 Noroeste 0 -- -- 94
2019-02-01 07:00:00 10.8 14 Noroeste 52 Oeste 0 -- -- 94
2019-02-01 06:00:00 12.9 23 Oeste 51 Noroeste 1.6 -- -- 95
2019-02-01 05:00:00 13.8 23 Oeste 65 Sudoeste 5.6 -- -- 96
2019-02-01 04:00:00 14 30 Sudoeste 52 Sudoeste 4 -- -- 97
2019-02-01 03:00:00 14.1 28 Sudoeste 52 Sudoeste 5.4 -- -- 97
2019-02-01 02:00:00 14 26 Sudoeste 47 Sudoeste 1.8 -- -- 97
2019-02-01 01:00:00 13.7 19 Sudoeste 50 Sudoeste 0.4 -- -- 95
2019-02-01 00:00:00 13.7 17 Sudoeste 33 Sudoeste 0 -- -- 93
2019-01-31 23:00:00 13.2 14 Sudoeste 36 Sudoeste 0 -- -- 94
2019-01-31 22:00:00 13.2 20 Sudoeste 40 Sudoeste 0 -- -- 93
2019-01-31 21:00:00 13.6 16 Sudoeste 32 Sudoeste 0 -- -- 94
2019-01-31 20:00:00 13.7 13 Sudoeste 31 Sudoeste 0 -- -- 95
2019-01-31 19:00:00 13.8 13 Sudoeste 37 Sudoeste 0 -- -- 94
2019-01-31 18:00:00 13.7 17 Sudoeste 31 Sudoeste 0 -- -- 95
2019-01-31 17:00:00 13.2 14 Oeste 46 Oeste 1.2 -- -- 92
2019-01-31 16:00:00 14.4 23 Sudoeste 43 Sudoeste 0 -- -- 87
2019-01-31 15:00:00 15.5 17 Sudoeste 44 Sudoeste 0 -- -- 83
2019-01-31 14:00:00 15.8 17 Sudoeste 35 Sudoeste 0 -- -- 80
2019-01-31 13:00:00 15.1 16 Sudoeste 32 Sudoeste 0 -- -- 83
2019-01-31 12:00:00 14.4 17 Sudoeste 31 Sudoeste 0 -- -- 87
2019-01-31 11:00:00 13.3 10 Sudoeste 18 Oeste 0 -- -- 97
2019-01-31 10:00:00 12.2 9 Oeste 19 Oeste 0.2 -- -- 97
2019-01-31 09:00:00 12.2 9 Oeste 18 Sudoeste 0 -- -- 97
2019-01-31 08:00:00 12.2 7 Sudoeste 17 Sudoeste 0 -- -- 97
2019-01-31 07:00:00 12.3 9 Sudoeste 22 Oeste 0.2 -- -- 98
2019-01-31 06:00:00 12.1 9 Sudoeste 23 Sudoeste 0 -- -- 98
2019-01-31 05:00:00 12 13 Sudoeste 22 Sudoeste 0 -- -- 97
2019-01-31 04:00:00 11.9 13 Sudoeste 25 Oeste 0 -- -- 97
2019-01-31 03:00:00 11.8 13 Sudoeste 28 Sudoeste 0 -- -- 97
2019-01-31 02:00:00 11.6 11 Sudoeste 21 Sudoeste 0.2 -- -- 97
2019-01-31 01:00:00 11.5 8 Sudoeste 17 Sudoeste 0.6 -- -- 97
2019-01-31 00:00:00 11.6 8 Sudoeste 17 Oeste 0 -- -- 97
2019-01-30 23:00:00 11.7 9 Oeste 19 Oeste 0 -- -- 97
2019-01-30 22:00:00 12 11 Sudoeste 20 Sudoeste 0 -- -- 97
2019-01-30 21:00:00 12 6 Sudoeste 13 Oeste 0 -- -- 97
2019-01-30 20:00:00 11.9 4 Sudoeste 15 Oeste 0 -- -- 96
2019-01-30 19:00:00 12 7 Oeste 12 Sudoeste 0.2 -- -- 95
2019-01-30 18:00:00 12 5 Sudoeste 14 Oeste 1.4 -- -- 94
2019-01-30 17:00:00 12.3 6 Sudoeste 15 Sudoeste 0.4 -- -- 89
2019-01-30 16:00:00 12.8 9 Oeste 21 Sudoeste 0 -- -- 82
2019-01-30 15:00:00 12.3 12 Oeste 26 Oeste 0 -- -- 81
2019-01-30 14:00:00 12.4 11 Oeste 21 Sudoeste 0 -- -- 76
2019-01-30 13:00:00 12.3 10 Oeste 17 Noroeste 0 -- -- 75
2019-01-30 12:00:00 11.6 7 Sudoeste 11 Sudoeste 0 -- -- 85
2019-01-30 11:00:00 10.7 0 Calma 12 Noroeste 0 -- -- 88
2019-01-30 10:00:00 9.5 5 Oeste 10 Noroeste 0 -- -- 95
2019-01-30 09:00:00 9.2 2 Sur 4 Sur 0 -- -- 96
2019-01-30 08:00:00 9.7 0 Calma 10 Sudoeste 0 -- -- 96
2019-01-30 07:00:00 10.1 4 Sudoeste 14 Sudoeste 0 -- -- 96
2019-01-30 06:00:00 10.1 9 Sudoeste 21 Sudoeste 0 -- -- 96
2019-01-30 05:00:00 10.2 11 Oeste 21 Oeste 0 -- -- 95
2019-01-30 04:00:00 9.8 12 Oeste 19 Oeste 0 -- -- 95
2019-01-30 03:00:00 8.9 6 Sudoeste 11 Sudoeste 0 -- -- 94
2019-01-30 02:00:00 9.1 4 Sur 10 Sudoeste 0 -- -- 93
2019-01-30 01:00:00 9.1 8 Oeste 17 Oeste 0 -- -- 92
2019-01-30 00:00:00 8.8 8 Oeste 14 Sudoeste 0 -- -- 91
2019-01-29 23:00:00 9.5 6 Oeste 14 Oeste 0 -- -- 88
2019-01-29 22:00:00 10.9 8 Oeste 18 Oeste 0 -- -- 84
2019-01-29 21:00:00 11.6 10 Oeste 20 Noroeste 0 -- -- 78
2019-01-29 20:00:00 12.6 12 Oeste 28 Noroeste 0 -- -- 75
2019-01-29 19:00:00 13.3 13 Oeste 30 Oeste 0 -- -- 72
2019-01-29 18:00:00 14.6 16 Oeste 28 Oeste 0 -- -- 67
2019-01-29 17:00:00 14.8 12 Noroeste 32 Noroeste 0 -- -- 65
2019-01-29 16:00:00 15.1 17 Noroeste 33 Oeste 0 -- -- 64
2019-01-29 15:00:00 15.3 14 Oeste 26 Oeste 0 -- -- 69
2019-01-29 14:00:00 14.6 13 Oeste 34 Noroeste 0 -- -- 71
2019-01-29 13:00:00 13.2 17 Noroeste 33 Oeste 0 -- -- 79
2019-01-29 12:00:00 13.7 18 Noroeste 36 Noroeste 0 -- -- 73
2019-01-29 11:00:00 12 18 Noroeste 32 Noroeste 0 -- -- 79
2019-01-29 10:00:00 10.6 9 Noroeste 26 Noroeste 0 -- -- 83
2019-01-29 09:00:00 7 3 Sudoeste 9 Sudoeste 0 -- -- 93
2019-01-29 08:00:00 7.1 4 Sudoeste 17 Noroeste 0 -- -- 94
2019-01-29 07:00:00 5.8 0 Calma 5 Sur 0 -- -- 96
2019-01-29 06:00:00 5.7 0 Calma 7 Noroeste 0 -- -- 95
2019-01-29 05:00:00 7.3 4 Oeste 11 Oeste 0 -- -- 96
2019-01-29 04:00:00 7.1 3 Sur 14 Oeste 0 -- -- 93
2019-01-29 03:00:00 8 8 Oeste 12 Oeste 0 -- -- 94
2019-01-29 02:00:00 7.8 8 Sudoeste 19 Oeste 0 -- -- 93
2019-01-29 01:00:00 8.6 11 Oeste 20 Oeste 0 -- -- 92
2019-01-29 00:00:00 7.8 4 Oeste 8 Sudoeste 0 -- -- 91
2019-01-28 23:00:00 9.3 4 Sudoeste 14 Sudoeste 0 -- -- 88
2019-01-28 22:00:00 10.4 4 Sudoeste 20 Oeste 0 -- -- 85
2019-01-28 21:00:00 10.8 8 Oeste 16 Oeste 0 -- -- 83
2019-01-28 20:00:00 11.5 11 Oeste 20 Oeste 0 -- -- 79
2019-01-28 19:00:00 13 8 Oeste 24 Noroeste 0 -- -- 72
2019-01-28 18:00:00 14.4 16 Noroeste 37 Noroeste 0 -- -- 64
2019-01-28 17:00:00 14.8 22 Noroeste 46 Noroeste 0 -- -- 60
2019-01-28 16:00:00 15 22 Noroeste 42 Noroeste 0 -- -- 59
2019-01-28 15:00:00 15.1 17 Noroeste 40 Oeste 0 -- -- 62
2019-01-28 14:00:00 14.7 19 Noroeste 34 Noroeste 0 -- -- 61
2019-01-28 13:00:00 14.4 12 Noroeste 30 Oeste 0 -- -- 62
2019-01-28 12:00:00 12.6 13 Noroeste 24 Noroeste 0 -- -- 65
2019-01-28 11:00:00 10.6 7 Oeste 13 Noroeste 0 -- -- 73
2019-01-28 10:00:00 7.1 6 Noroeste 13 Noroeste 0 -- -- 82
2019-01-28 09:00:00 4.6 5 Noroeste 9 Noroeste 0 -- -- 83
2019-01-28 08:00:00 6.6 4 Noroeste 23 Norte 0 -- -- 79
2019-01-28 07:00:00 7.1 10 Norte 26 Noroeste 0 -- -- 79
2019-01-28 06:00:00 6.2 6 Noroeste 15 Noroeste 0 -- -- 85
2019-01-28 05:00:00 6.4 3 Oeste 17 Noroeste 0 -- -- 83
2019-01-28 04:00:00 6.4 9 Noroeste 14 Noroeste 0 -- -- 84
2019-01-28 03:00:00 6.6 7 Noroeste 20 Noroeste 0 -- -- 81
2019-01-28 02:00:00 6.6 9 Noroeste 15 Noroeste 0 -- -- 81
2019-01-28 01:00:00 6.6 4 Noroeste 14 Oeste 0 -- -- 81
2019-01-28 00:00:00 6.7 6 Oeste 13 Oeste 0 -- -- 81
2019-01-27 23:00:00 6.2 6 Oeste 10 Oeste 0 -- -- 80
2019-01-27 22:00:00 6.5 5 Oeste 9 Sudoeste 0 -- -- 80
2019-01-27 21:00:00 8.6 5 Oeste 12 Noroeste 0 -- -- 73
2019-01-27 20:00:00 9.7 5 Oeste 11 Oeste 0 -- -- 69
2019-01-27 19:00:00 11.6 6 Noroeste 21 Noroeste 0 -- -- 63
2019-01-27 18:00:00 13.2 9 Noroeste 38 Oeste 0 -- -- 58
2019-01-27 17:00:00 13.6 24 Noroeste 44 Noroeste 0 -- -- 56
2019-01-27 16:00:00 14 23 Noroeste 52 Noroeste 0 -- -- 57
2019-01-27 15:00:00 14.2 24 Noroeste 47 Noroeste 0 -- -- 58
2019-01-27 14:00:00 13.8 24 Noroeste 44 Noroeste 0 -- -- 63
2019-01-27 13:00:00 13 21 Noroeste 38 Noroeste 0 -- -- 70
2019-01-27 12:00:00 11.7 17 Noroeste 35 Noroeste 0 -- -- 76
2019-01-27 11:00:00 9.7 21 Noroeste 41 Noroeste 0 -- -- 84
2019-01-27 10:00:00 7.6 17 Noroeste 32 Noroeste 0 -- -- 94
2019-01-27 09:00:00 6 6 Oeste 28 Oeste 0 -- -- 97
2019-01-27 08:00:00 6.3 6 Noroeste 19 Noroeste 0 -- -- 98
2019-01-27 07:00:00 5 2 Oeste 13 Noroeste 0 -- -- 97
2019-01-27 06:00:00 2.4 6 Noroeste 8 Noroeste 0 -- -- 97
2019-01-27 05:00:00 3.3 0 Calma 4 Sur 0 -- -- 97
2019-01-27 04:00:00 3.9 3 Sur 5 Sur 0 -- -- 97
2019-01-27 03:00:00 4.2 0 Calma 3 Norte 0 -- -- 96
2019-01-27 02:00:00 6 0 Calma 4 Noroeste 0 -- -- 97
2019-01-27 01:00:00 6.1 0 Calma 4 Norte 0 -- -- 95
2019-01-27 00:00:00 7.3 0 Calma 3 Norte 0 -- -- 95
2019-01-26 23:00:00 6.6 0 Calma 2 Noroeste 0 -- -- 91
2019-01-26 22:00:00 7.9 0 Calma 4 Norte 0 -- -- 89
2019-01-26 21:00:00 10.4 2 Noroeste 9 Oeste 0 -- -- 89
2019-01-26 20:00:00 12.2 3 Noroeste 9 Oeste 0 -- -- 83
2019-01-26 19:00:00 14.5 4 Sudoeste 17 Sudoeste 0 -- -- 73
2019-01-26 18:00:00 17.6 14 Sudoeste 24 Sudoeste 0 -- -- 62
2019-01-26 17:00:00 21.1 4 Sur 15 Sudeste 0 -- -- 37
2019-01-26 16:00:00 21.4 10 Sudeste 19 Sudeste 0 -- -- 37
2019-01-26 15:00:00 21 10 Sudeste 23 Sudeste 0 -- -- 38
2019-01-26 14:00:00 20.5 10 Sudeste 21 Sudeste 0 -- -- 43
2019-01-26 13:00:00 19.9 11 Sudeste 18 Sudeste 0 -- -- 44
2019-01-26 12:00:00 18 6 Este 15 Este 0 -- -- 49
2019-01-26 11:00:00 14.6 6 Nordeste 15 Nordeste 0 -- -- 60
2019-01-26 10:00:00 11.7 7 Nordeste 13 Norte 0 -- -- 69
2019-01-26 09:00:00 9.2 8 Nordeste 13 Nordeste 0 -- -- 77
2019-01-26 08:00:00 9.7 6 Nordeste 13 Nordeste 0 -- -- 76
2019-01-26 07:00:00 10.8 10 Norte 14 Nordeste 0 -- -- 74
2019-01-26 06:00:00 10.1 7 Nordeste 13 Norte 0 -- -- 79
2019-01-26 05:00:00 10.8 10 Norte 15 Nordeste 0 -- -- 78
2019-01-26 04:00:00 8.7 8 Norte 10 Norte 0 -- -- 86
2019-01-26 03:00:00 10.8 9 Norte 13 Nordeste 0 -- -- 80
2019-01-26 02:00:00 11.4 7 Nordeste 14 Norte 0 -- -- 80
2019-01-26 01:00:00 11 9 Norte 13 Norte 0 -- -- 85
2019-01-26 00:00:00 10.3 6 Norte 12 Norte 0 -- -- 89
2019-01-25 23:00:00 8 5 Norte 7 Norte 0 -- -- 92
2019-01-25 22:00:00 9.3 4 Norte 6 Nordeste 0 -- -- 90
2019-01-25 21:00:00 10.5 2 Norte 6 Noroeste 0 -- -- 86
2019-01-25 20:00:00 11.5 4 Noroeste 5 Noroeste 0 -- -- 82
2019-01-25 19:00:00 15.7 3 Noroeste 6 Noroeste 0 -- -- 70
2019-01-25 18:00:00 20.8 2 Sudeste 10 Este 0 -- -- 53
2019-01-25 17:00:00 20.9 4 Este 14 Este 0 -- -- 52
2019-01-25 16:00:00 21 7 Sudeste 20 Este 0 -- -- 52
2019-01-25 15:00:00 20.3 10 Este 24 Sudeste 0 -- -- 53
2019-01-25 14:00:00 19.8 10 Sudeste 19 Este 0 -- -- 55
2019-01-25 13:00:00 18.6 8 Sudeste 14 Este 0 -- -- 61
2019-01-25 12:00:00 15.6 3 Nordeste 9 Este 0 -- -- 71
2019-01-25 11:00:00 13.2 4 Sudeste 11 Este 0 -- -- 79
2019-01-25 10:00:00 9.9 3 Nordeste 10 Nordeste 0 -- -- 90
2019-01-25 09:00:00 7.5 6 Nordeste 13 Nordeste 0 -- -- 93
2019-01-25 08:00:00 8 8 Nordeste 15 Nordeste 0 -- -- 95
2019-01-25 07:00:00 7.1 7 Nordeste 13 Nordeste 0 -- -- 96
2019-01-25 06:00:00 6.9 5 Este 10 Nordeste 0 -- -- 95
2019-01-25 05:00:00 6.8 4 Norte 6 Norte 0 -- -- 94
2019-01-25 04:00:00 7.2 3 Norte 5 Norte 0 -- -- 92
2019-01-25 03:00:00 8.9 0 Calma 10 Norte 0 -- -- 93
2019-01-25 02:00:00 7.8 6 Norte 8 Norte 0 -- -- 94
2019-01-25 01:00:00 8.3 2 Norte 5 Norte 0 -- -- 92
2019-01-25 00:00:00 9.1 4 Norte 7 Norte 0 -- -- 92
2019-01-24 23:00:00 10.2 0 Calma 5 Norte 0 -- -- 87
2019-01-24 22:00:00 11.9 5 Norte 10 Nordeste 0 -- -- 82
2019-01-24 21:00:00 14.2 7 Norte 12 Norte 0 -- -- 75
2019-01-24 20:00:00 13.3 8 Noroeste 12 Norte 0 -- -- 78
2019-01-24 19:00:00 16.4 3 Noroeste 10 Noroeste 0 -- -- 66
2019-01-24 18:00:00 19.2 7 Noroeste 17 Oeste 0 -- -- 58
2019-01-24 17:00:00 19.4 9 Noroeste 17 Noroeste 0 -- -- 56
2019-01-24 16:00:00 18.9 11 Noroeste 23 Noroeste 0 -- -- 57
2019-01-24 15:00:00 18.3 7 Noroeste 18 Noroeste 0 -- -- 59
2019-01-24 14:00:00 17 6 Noroeste 26 Noroeste 0 -- -- 64
2019-01-24 13:00:00 16.7 12 Noroeste 26 Noroeste 0 -- -- 64
2019-01-24 12:00:00 15.8 14 Noroeste 25 Noroeste 0 -- -- 69
2019-01-24 11:00:00 14.3 8 Noroeste 23 Norte 0 -- -- 75
2019-01-24 10:00:00 11.7 3 Sur 15 Noroeste 0 -- -- 86
2019-01-24 09:00:00 9.8 6 Noroeste 13 Noroeste 0 -- -- 89
2019-01-24 08:00:00 10.1 6 Sur 18 Noroeste 0 -- -- 87
2019-01-24 07:00:00 11.7 11 Noroeste 25 Noroeste 0 -- -- 82
2019-01-24 06:00:00 11 9 Oeste 18 Sudoeste 0 -- -- 86
2019-01-24 05:00:00 11.3 7 Sudoeste 17 Noroeste 0 -- -- 83
2019-01-24 04:00:00 12.2 10 Noroeste 22 Oeste 0 -- -- 80
2019-01-24 03:00:00 12.5 11 Noroeste 32 Oeste 0 -- -- 79
2019-01-24 02:00:00 12.5 17 Noroeste 29 Noroeste 0 -- -- 80
2019-01-24 01:00:00 12.8 11 Oeste 28 Noroeste 0 -- -- 78
2019-01-24 00:00:00 13.1 17 Oeste 33 Oeste 0 -- -- 77